Time;durP1;ratioP1;P1;durP2;ratioP2;P2;SDS_P1;SDS_P2;PMS_P1;PMS_P2;Temp;Humidity;BMP_temperature;BMP_pressure;BME280_temperature;BME280_humidity;BME280_pressure;Samples;Min_cycle;Max_cycle;Signal;HPM_P1;HPM_P2
2022/08/23 00:00:41;;;;;;;5.90;2.53;;;14.20;99.90;;;;;;5121826;28;20183;-83
2022/08/23 00:03:07;;;;;;;3.67;3.03;;;14.10;99.90;;;;;;5123307;28;20175;-83
2022/08/23 00:05:33;;;;;;;4.27;2.70;;;14.10;99.90;;;;;;5122764;28;20239;-83
2022/08/23 00:07:59;;;;;;;3.73;2.60;;;14.00;99.90;;;;;;5124620;28;20230;-84
2022/08/23 00:10:25;;;;;;;2.83;2.57;;;;;;;;;;5125910;28;20171;-84
2022/08/23 00:12:50;;;;;;;4.07;2.77;;;14.00;99.90;;;;;;5122766;28;20171;-82
2022/08/23 00:15:19;;;;;;;5.67;2.80;;;13.90;99.90;;;;;;5121840;28;20270;-84
2022/08/23 00:17:45;;;;;;;5.33;3.00;;;13.90;99.90;;;;;;5121239;28;20702;-84
2022/08/23 00:20:15;;;;;;;6.67;2.93;;;13.80;99.90;;;;;;5122238;28;20199;-84
2022/08/23 00:22:41;;;;;;;3.37;2.77;;;13.90;99.90;;;;;;5122786;28;20700;-84
2022/08/23 00:25:09;;;;;;;3.73;2.83;;;13.70;99.90;;;;;;5121280;28;20208;-84
2022/08/23 00:27:35;;;;;;;5.33;3.03;;;13.70;99.90;;;;;;5120854;28;20201;-83
2022/08/23 00:30:01;;;;;;;7.63;3.27;;;;;;;;;;5122386;28;20636;-83
2022/08/23 00:32:30;;;;;;;4.27;2.90;;;13.70;99.90;;;;;;5122190;28;20171;-83
2022/08/23 00:34:57;;;;;;;3.70;2.93;;;13.70;99.90;;;;;;5121297;28;20178;-83
2022/08/23 00:37:23;;;;;;;4.37;3.27;;;13.70;99.90;;;;;;5120944;28;20179;-84
2022/08/23 00:39:49;;;;;;;3.03;2.70;;;13.60;99.90;;;;;;5120169;28;20199;-83
2022/08/23 00:48:20;;;;;;;4.17;2.80;;;13.30;99.90;;;;;;5123139;28;20211;-81
2022/08/23 00:50:53;;;;;;;3.03;2.73;;;13.30;99.90;;;;;;5122633;28;20537;-83
2022/08/23 00:53:32;;;;;;;4.33;2.83;;;13.20;99.90;;;;;;5123337;28;20187;-83
2022/08/23 00:56:02;;;;;;;6.33;3.30;;;13.10;99.90;;;;;;5121053;28;20226;-84
2022/08/23 00:58:28;;;;;;;3.13;2.83;;;13.10;99.90;;;;;;5121311;28;20561;-82
2022/08/23 01:00:57;;;;;;;3.80;3.27;;;13.00;99.90;;;;;;5121709;28;20168;-84
2022/08/23 01:03:25;;;;;;;5.37;3.30;;;13.00;99.90;;;;;;5121034;28;20598;-84
2022/08/23 01:06:00;;;;;;;4.37;3.40;;;12.90;99.90;;;;;;5121823;28;20267;-85
2022/08/23 01:08:28;;;;;;;4.07;3.40;;;12.80;99.90;;;;;;5123259;28;20194;-84
2022/08/23 01:10:59;;;;;;;4.30;3.30;;;12.80;99.90;;;;;;5123823;28;20178;-84
2022/08/23 01:13:38;;;;;;;4.33;3.50;;;12.80;99.90;;;;;;5119506;28;20183;-84
2022/08/23 01:16:26;;;;;;;7.00;3.50;;;12.80;99.90;;;;;;5121260;28;20176;-83
2022/08/23 01:18:54;;;;;;;4.37;3.33;;;12.80;99.90;;;;;;5119475;28;20716;-83
2022/08/23 01:21:25;;;;;;;5.67;3.90;;;12.80;99.90;;;;;;5120699;28;20193;-84
2022/08/23 01:23:55;;;;;;;7.23;3.70;;;12.70;99.90;;;;;;5120838;28;20537;-83
2022/08/23 01:26:23;;;;;;;4.83;3.70;;;12.70;99.90;;;;;;5120329;28;20199;-84
2022/08/23 01:28:51;;;;;;;4.40;3.47;;;12.70;99.90;;;;;;5120933;28;20285;-83
2022/08/23 01:31:17;;;;;;;6.43;3.60;;;12.70;99.90;;;;;;5119699;28;20697;-83
2022/08/23 01:33:46;;;;;;;5.87;3.73;;;12.70;99.90;;;;;;5120134;28;20178;-83
2022/08/23 01:36:13;;;;;;;5.37;3.83;;;12.70;99.90;;;;;;5120785;28;20172;-84
2022/08/23 01:38:39;;;;;;;5.17;3.60;;;12.60;99.90;;;;;;5119114;28;20653;-83
2022/08/23 01:41:06;;;;;;;6.60;4.00;;;12.60;99.90;;;;;;5119065;28;20210;-82
2022/08/23 01:43:32;;;;;;;6.40;4.00;;;12.60;99.90;;;;;;5119377;28;20175;-84
2022/08/23 01:46:08;;;;;;;6.60;4.23;;;12.50;99.90;;;;;;5121194;28;20175;-83
2022/08/23 01:48:34;;;;;;;6.47;4.10;;;12.50;99.90;;;;;;5120630;28;20221;-84
2022/08/23 01:51:00;;;;;;;5.23;4.10;;;12.50;99.90;;;;;;5119284;28;20171;-82
2022/08/23 01:53:25;;;;;;;4.53;4.13;;;12.50;99.90;;;;;;5120114;28;20178;-83
2022/08/23 01:55:51;;;;;;;7.20;4.30;;;12.40;99.90;;;;;;5120733;28;20191;-84
2022/08/23 01:58:17;;;;;;;6.50;3.93;;;12.30;99.90;;;;;;5122904;28;20274;-82
2022/08/23 02:00:43;;;;;;;5.00;4.27;;;12.30;99.90;;;;;;5118964;28;20186;-83
2022/08/23 02:03:11;;;;;;;5.63;4.07;;;12.20;99.90;;;;;;5120548;28;20197;-82
2022/08/23 02:05:39;;;;;;;4.93;3.60;;;12.20;99.90;;;;;;5120133;28;20260;-84
2022/08/23 02:10:50;;;;;;;3.60;3.30;;;12.10;99.90;;;;;;5121108;28;20231;-83
2022/08/23 02:13:16;;;;;;;4.90;3.40;;;12.10;99.90;;;;;;5120118;28;20231;-83
2022/08/23 02:15:50;;;;;;;5.63;3.50;;;12.10;99.90;;;;;;5118805;28;20625;-83
2022/08/23 02:18:17;;;;;;;4.40;3.50;;;12.10;99.90;;;;;;5118511;28;20194;-84
2022/08/23 02:20:48;;;;;;;6.07;3.70;;;12.10;99.90;;;;;;5119091;28;20553;-83
2022/08/23 02:23:14;;;;;;;4.80;3.60;;;12.00;99.90;;;;;;5121028;28;20301;-83
2022/08/23 02:25:40;;;;;;;5.10;4.10;;;12.00;99.90;;;;;;5121464;28;20195;-83
2022/08/23 02:28:06;;;;;;;5.40;4.10;;;11.90;99.90;;;;;;5119791;28;20215;-83
2022/08/23 02:30:32;;;;;;;4.23;3.43;;;11.90;99.90;;;;;;5119188;28;20229;-83
2022/08/23 02:32:58;;;;;;;4.17;3.43;;;;;;;;;;5118418;28;20175;-83
2022/08/23 02:35:24;;;;;;;4.83;4.20;;;11.80;99.90;;;;;;5118418;28;20186;-83
2022/08/23 02:37:51;;;;;;;5.73;3.50;;;11.80;99.90;;;;;;5118866;28;20179;-83
2022/08/23 02:40:18;;;;;;;6.17;3.97;;;11.80;99.90;;;;;;5119326;28;20639;-83
2022/08/23 02:42:43;;;;;;;4.20;3.80;;;11.80;99.90;;;;;;5118727;28;20530;-83
2022/08/23 02:45:10;;;;;;;5.07;3.60;;;11.70;99.90;;;;;;5119710;28;20175;-83
2022/08/23 02:47:36;;;;;;;5.17;3.57;;;11.70;99.90;;;;;;5119510;28;20255;-83
2022/08/23 02:50:07;;;;;;;7.20;3.60;;;11.70;99.90;;;;;;5118267;28;20173;-83
2022/08/23 02:52:34;;;;;;;4.37;3.63;;;11.70;99.90;;;;;;5119565;28;20168;-83
2022/08/23 02:54:59;;;;;;;5.17;3.97;;;11.70;99.90;;;;;;5118157;28;20236;-83
2022/08/23 02:57:26;;;;;;;5.00;3.77;;;11.70;99.90;;;;;;5119501;28;20167;-83
2022/08/23 02:59:52;;;;;;;7.00;4.07;;;11.70;99.90;;;;;;5118053;28;20198;-85
2022/08/23 03:02:18;;;;;;;5.57;3.50;;;;;;;;;;5118492;28;20182;-82
2022/08/23 03:04:44;;;;;;;7.10;3.70;;;;;;;;;;5119053;28;20168;-83
2022/08/23 03:07:11;;;;;;;4.93;3.57;;;11.60;99.90;;;;;;5117366;28;20205;-83
2022/08/23 03:09:37;;;;;;;4.93;3.77;;;11.50;99.90;;;;;;5118049;28;20217;-83
2022/08/23 03:12:03;;;;;;;5.40;4.03;;;11.50;99.90;;;;;;5117700;28;20679;-83
2022/08/23 03:14:29;;;;;;;11.50;3.63;;;11.50;99.90;;;;;;5119506;28;20250;-83
2022/08/23 03:16:55;;;;;;;5.00;3.87;;;;;;;;;;5117501;28;20214;-83
2022/08/23 03:19:21;;;;;;;6.10;4.33;;;11.40;99.90;;;;;;5118737;28;20191;-83
2022/08/23 03:21:46;;;;;;;5.27;3.90;;;11.40;99.90;;;;;;5118694;28;20181;-83
2022/08/23 03:24:13;;;;;;;6.57;4.20;;;;;;;;;;5118595;28;20179;-82
2022/08/23 03:26:44;;;;;;;4.73;4.13;;;11.40;99.90;;;;;;5118311;28;20588;-84
2022/08/23 03:29:11;;;;;;;4.60;3.87;;;11.30;99.90;;;;;;5118011;28;20227;-83
2022/08/23 03:31:37;;;;;;;4.03;3.63;;;11.30;99.90;;;;;;5118919;28;20707;-84
2022/08/23 03:34:04;;;;;;;8.63;4.00;;;11.30;99.90;;;;;;5117078;28;20176;-83
2022/08/23 03:36:30;;;;;;;6.30;4.30;;;11.30;99.90;;;;;;5118164;28;20239;-83
2022/08/23 03:38:56;;;;;;;7.73;4.30;;;11.30;99.90;;;;;;5116676;28;20292;-82
2022/08/23 03:41:22;;;;;;;4.80;3.73;;;11.30;99.90;;;;;;5116836;28;20546;-83
2022/08/23 03:43:47;;;;;;;7.37;4.67;;;11.20;99.90;;;;;;5116082;28;20240;-83
2022/08/23 03:46:21;;;;;;;5.30;4.47;;;11.10;99.90;;;;;;5117920;28;20523;-82
2022/08/23 03:48:52;;;;;;;6.17;4.63;;;11.10;99.90;;;;;;5117961;28;20190;-83
2022/08/23 03:51:19;;;;;;;7.67;4.50;;;11.10;99.90;;;;;;5117206;28;20206;-83
2022/08/23 03:53:46;;;;;;;6.93;4.53;;;11.00;99.90;;;;;;5117262;28;20250;-84
2022/08/23 03:56:28;;;;;;;5.87;4.47;;;10.90;99.90;;;;;;5116760;28;20282;-84
2022/08/23 03:58:56;;;;;;;4.03;3.60;;;11.00;99.90;;;;;;5118129;28;20193;-83
2022/08/23 04:01:22;;;;;;;4.87;4.33;;;11.00;99.90;;;;;;5118164;28;20172;-83
2022/08/23 04:03:48;;;;;;;5.07;4.53;;;11.00;99.90;;;;;;5118592;28;20171;-83
2022/08/23 04:06:15;;;;;;;8.53;4.23;;;10.90;99.90;;;;;;5116287;28;20625;-83
2022/08/23 04:08:41;;;;;;;4.93;4.43;;;10.90;99.90;;;;;;5116195;28;20188;-83
2022/08/23 04:11:08;;;;;;;6.40;4.50;;;10.90;99.90;;;;;;5115424;28;20249;-83
2022/08/23 04:13:34;;;;;;;8.87;4.60;;;10.90;99.90;;;;;;5115229;28;20208;-82
2022/08/23 04:16:02;;;;;;;6.40;5.17;;;10.90;99.90;;;;;;5115685;28;20250;-82
2022/08/23 04:18:30;;;;;;;8.17;5.40;;;10.90;99.90;;;;;;5119777;28;20233;-83
2022/08/23 04:20:58;;;;;;;5.80;5.20;;;10.90;99.90;;;;;;5120697;28;20305;-82
2022/08/23 04:23:26;;;;;;;5.60;4.90;;;10.90;99.90;;;;;;5121084;28;20518;-82
2022/08/23 04:25:53;;;;;;;5.77;4.40;;;10.80;99.90;;;;;;5120219;27;20164;-84
2022/08/23 04:28:19;;;;;;;5.07;4.57;;;10.70;99.90;;;;;;5118901;28;20680;-81
2022/08/23 04:30:45;;;;;;;5.57;4.67;;;10.60;99.90;;;;;;5119581;28;20173;-83
2022/08/23 04:33:11;;;;;;;6.67;4.43;;;10.60;99.90;;;;;;5119602;28;20258;-83
2022/08/23 04:35:37;;;;;;;5.40;4.30;;;10.60;99.90;;;;;;5120583;28;20175;-83
2022/08/23 04:38:03;;;;;;;5.40;4.43;;;10.50;99.90;;;;;;5119272;28;20193;-80
2022/08/23 04:43:13;;;;;;;8.97;4.93;;;10.40;99.90;;;;;;5120686;28;20200;-82
2022/08/23 04:45:39;;;;;;;9.47;4.70;;;10.40;99.90;;;;;;5119270;28;20651;-82
2022/08/23 04:48:07;;;;;;;6.00;5.40;;;10.50;99.90;;;;;;5118528;28;20697;-82
2022/08/23 04:50:33;;;;;;;7.67;4.83;;;10.50;99.90;;;;;;5118872;28;20655;-83
2022/08/23 04:52:59;;;;;;;6.03;4.53;;;10.50;99.90;;;;;;5119004;28;20241;-83
2022/08/23 04:55:25;;;;;;;7.03;4.70;;;10.50;99.90;;;;;;5119946;28;20180;-82
2022/08/23 04:57:50;;;;;;;6.03;5.33;;;10.60;99.90;;;;;;5118405;28;20660;-84
2022/08/23 05:00:16;;;;;;;5.93;4.50;;;10.50;99.90;;;;;;5120311;28;20172;-82
2022/08/23 05:02:42;;;;;;;6.70;4.27;;;10.60;99.90;;;;;;5119872;28;20168;-82
2022/08/23 05:05:09;;;;;;;4.63;4.00;;;10.70;99.90;;;;;;5118424;28;20183;-81
2022/08/23 05:07:37;;;;;;;6.63;4.77;;;10.80;99.90;;;;;;5117822;28;20211;-82
2022/08/23 05:10:05;;;;;;;5.90;4.30;;;10.80;99.90;;;;;;5117964;28;20172;-82
2022/08/23 05:12:31;;;;;;;5.13;4.43;;;10.80;99.90;;;;;;5118803;28;20200;-82
2022/08/23 05:14:56;;;;;;;7.00;5.27;;;10.90;99.90;;;;;;5119496;28;20170;-82
2022/08/23 05:17:22;;;;;;;5.10;4.60;;;11.00;99.90;;;;;;5119292;28;20174;-82
2022/08/23 05:19:48;;;;;;;5.63;5.00;;;11.10;99.90;;;;;;5118097;28;20338;-84
2022/08/23 05:22:13;;;;;;;6.63;4.53;;;11.20;99.90;;;;;;5118192;28;20202;-82
2022/08/23 05:24:39;;;;;;;5.03;4.53;;;11.30;99.90;;;;;;5117024;28;20182;-83
2022/08/23 05:27:05;;;;;;;5.03;4.50;;;11.30;99.90;;;;;;5117191;28;20238;-84
2022/08/23 05:29:30;;;;;;;5.00;4.17;;;11.30;99.90;;;;;;5117592;28;20193;-84
2022/08/23 05:31:56;;;;;;;5.57;4.17;;;11.20;99.90;;;;;;5118610;28;20171;-84
2022/08/23 05:34:22;;;;;;;9.23;4.10;;;11.20;99.90;;;;;;5117803;28;20638;-83
2022/08/23 05:36:48;;;;;;;10.97;3.80;;;11.30;99.90;;;;;;5118128;28;20183;-81
2022/08/23 05:39:14;;;;;;;4.77;3.83;;;11.40;99.90;;;;;;5117393;28;20250;-85
2022/08/23 05:41:41;;;;;;;6.77;4.40;;;11.40;99.90;;;;;;5118040;28;20188;-83
2022/08/23 05:44:09;;;;;;;7.23;4.20;;;11.50;99.90;;;;;;5119172;28;20211;-84
2022/08/23 05:46:35;;;;;;;5.73;4.27;;;11.60;99.90;;;;;;5117788;28;20203;-83
2022/08/23 05:49:02;;;;;;;11.57;4.53;;;11.80;99.90;;;;;;5119228;28;20593;-84
2022/08/23 05:51:30;;;;;;;7.67;4.80;;;11.90;99.90;;;;;;5118977;28;20170;-84
2022/08/23 05:54:00;;;;;;;11.63;4.33;;;12.00;99.90;;;;;;5119174;28;20524;-84
2022/08/23 05:56:30;;;;;;;7.93;4.53;;;12.10;99.90;;;;;;5117898;28;20313;-84
2022/08/23 05:59:00;;;;;;;6.57;4.57;;;12.30;99.90;;;;;;5118896;28;20202;-82
2022/08/23 06:01:28;;;;;;;14.20;4.63;;;12.30;99.90;;;;;;5117387;28;20171;-83
2022/08/23 06:03:54;;;;;;;6.57;3.83;;;12.50;99.90;;;;;;5119260;28;20254;-82
2022/08/23 06:06:20;;;;;;;6.43;4.30;;;12.60;99.90;;;;;;5117755;28;20214;-83
2022/08/23 06:08:47;;;;;;;12.63;3.90;;;12.70;99.90;;;;;;5118482;28;20691;-82
2022/08/23 06:11:18;;;;;;;6.13;3.77;;;12.80;99.90;;;;;;5119939;28;20172;-82
2022/08/23 06:13:47;;;;;;;3.93;3.27;;;12.90;99.90;;;;;;5118715;28;20624;-83
2022/08/23 06:16:14;;;;;;;6.50;3.43;;;13.00;99.90;;;;;;5118540;28;20265;-84
2022/08/23 06:18:40;;;;;;;5.33;3.37;;;13.10;99.90;;;;;;5120191;28;20213;-83
2022/08/23 06:21:08;;;;;;;5.70;3.87;;;13.10;99.90;;;;;;5119658;28;20175;-83
2022/08/23 06:23:36;;;;;;;5.80;3.30;;;13.20;99.90;;;;;;5119566;28;20220;-84
2022/08/23 06:26:12;;;;;;;4.60;2.97;;;13.30;99.90;;;;;;5118663;28;20660;-83
2022/08/23 06:28:38;;;;;;;6.70;3.57;;;13.40;99.90;;;;;;5120351;28;20191;-83
2022/08/23 06:31:04;;;;;;;4.00;2.90;;;13.40;99.90;;;;;;5119937;28;20180;-83
2022/08/23 06:33:30;;;;;;;4.17;3.10;;;13.50;99.90;;;;;;5119572;28;20172;-82
2022/08/23 06:36:10;;;;;;;4.87;3.37;;;13.60;99.90;;;;;;5118262;28;20224;-84
2022/08/23 06:38:36;;;;;;;6.30;3.23;;;13.70;99.90;;;;;;5117730;28;20194;-83
2022/08/23 06:41:07;;;;;;;3.93;2.80;;;13.80;99.90;;;;;;5119862;28;20171;-84
2022/08/23 06:43:34;;;;;;;3.80;3.07;;;13.90;99.90;;;;;;5118951;28;20176;-83
2022/08/23 06:46:16;;;;;;;4.30;2.80;;;14.00;99.90;;;;;;5118178;28;20179;-84
2022/08/23 06:48:42;;;;;;;4.20;3.17;;;14.10;99.90;;;;;;5118093;28;20207;-84
2022/08/23 06:51:22;;;;;;;7.63;3.20;;;14.20;99.90;;;;;;5117757;28;20206;-84
2022/08/23 06:53:48;;;;;;;7.03;3.37;;;14.30;99.90;;;;;;5116415;28;20175;-83
2022/08/23 06:56:14;;;;;;;4.30;3.33;;;14.40;99.90;;;;;;5116340;28;20244;-83
2022/08/23 06:58:41;;;;;;;4.20;3.13;;;14.40;99.90;;;;;;5117886;28;20223;-85
2022/08/23 07:01:24;;;;;;;4.67;3.37;;;14.50;99.90;;;;;;5117812;28;20652;-83
2022/08/23 07:03:54;;;;;;;6.33;3.67;;;14.60;99.90;;;;;;5116762;28;20185;-82
2022/08/23 07:06:22;;;;;;;3.40;2.90;;;14.70;99.90;;;;;;5116466;28;20633;-83
2022/08/23 07:08:48;;;;;;;4.40;3.40;;;14.90;99.90;;;;;;5117769;28;20188;-84
2022/08/23 07:11:14;;;;;;;3.33;2.87;;;15.00;99.90;;;;;;5117700;28;20207;-82
2022/08/23 07:13:40;;;;;;;5.43;3.30;;;15.10;99.90;;;;;;5117921;28;20233;-83
2022/08/23 07:16:06;;;;;;;7.73;3.30;;;15.30;99.90;;;;;;5116346;28;20182;-82
2022/08/23 07:18:32;;;;;;;5.27;2.90;;;15.50;99.90;;;;;;5116337;28;20199;-83
2022/08/23 07:21:00;;;;;;;7.10;3.80;;;15.70;99.90;;;;;;5117482;28;20171;-82
2022/08/23 07:23:26;;;;;;;3.97;3.10;;;15.80;99.90;;;;;;5117794;28;20171;-83
2022/08/23 07:25:52;;;;;;;2.83;2.43;;;15.90;99.90;;;;;;5116240;28;20179;-84
2022/08/23 07:28:18;;;;;;;5.13;2.70;;;16.10;99.90;;;;;;5117293;28;20211;-83
2022/08/23 07:30:44;;;;;;;5.90;2.87;;;16.20;99.90;;;;;;5117850;28;20175;-82
2022/08/23 07:33:10;;;;;;;3.73;3.00;;;16.30;99.90;;;;;;5117596;28;20555;-82
2022/08/23 07:35:36;;;;;;;5.90;2.73;;;16.50;99.90;;;;;;5115931;28;20179;-82
2022/08/23 07:38:02;;;;;;;5.27;2.67;;;16.60;99.90;;;;;;5117271;28;20195;-83
2022/08/23 07:40:28;;;;;;;3.50;2.63;;;16.70;99.90;;;;;;5117658;28;20179;-85
2022/08/23 07:42:56;;;;;;;5.27;2.70;;;16.90;99.90;;;;;;5116936;28;20192;-83
2022/08/23 07:45:22;;;;;;;10.60;2.53;;;17.00;99.90;;;;;;5117261;28;20527;-83
2022/08/23 07:47:48;;;;;;;3.50;2.10;;;17.20;99.90;;;;;;5117041;28;20203;-82
2022/08/23 07:50:13;;;;;;;3.13;2.30;;;17.40;99.90;;;;;;5118971;28;20258;-83
2022/08/23 07:52:39;;;;;;;3.07;2.20;;;17.50;99.90;;;;;;5120400;28;20176;-83
2022/08/23 07:55:06;;;;;;;4.33;2.63;;;17.60;99.90;;;;;;5121353;28;20264;-84
2022/08/23 07:57:32;;;;;;;4.40;2.33;;;17.80;99.90;;;;;;5121164;28;20203;-83
2022/08/23 07:59:57;;;;;;;2.20;2.00;;;17.80;99.90;;;;;;5121210;28;20207;-84
2022/08/23 08:02:23;;;;;;;3.40;1.90;;;18.00;99.90;;;;;;5121754;28;20264;-84
2022/08/23 08:04:49;;;;;;;4.93;2.40;;;18.20;99.90;;;;;;5120423;28;20518;-84
2022/08/23 08:07:14;;;;;;;4.07;2.23;;;18.60;99.90;;;;;;5121003;28;20226;-83
2022/08/23 08:09:40;;;;;;;6.47;2.20;;;18.50;99.90;;;;;;5123180;28;20195;-83
2022/08/23 08:12:06;;;;;;;4.47;2.53;;;18.80;99.90;;;;;;5122124;28;20652;-84
2022/08/23 08:14:32;;;;;;;2.73;2.10;;;18.90;99.90;;;;;;5123057;28;20174;-83
2022/08/23 08:16:59;;;;;;;3.50;2.20;;;18.90;99.90;;;;;;5119273;28;20259;-82
2022/08/23 08:19:25;;;;;;;6.67;2.13;;;19.10;99.90;;;;;;5119923;28;20247;-83
2022/08/23 08:21:51;;;;;;;4.03;1.90;;;19.30;99.90;;;;;;5118938;28;20700;-85
2022/08/23 08:24:17;;;;;;;4.03;1.77;;;19.50;99.90;;;;;;5119376;28;20182;-82
2022/08/23 08:26:44;;;;;;;2.27;1.80;;;19.70;99.90;;;;;;5120721;28;20277;-84
2022/08/23 08:29:11;;;;;;;5.30;2.30;;;19.90;99.90;;;;;;5120855;28;20220;-82
2022/08/23 08:31:41;;;;;;;2.83;1.93;;;20.20;99.90;;;;;;5118726;28;20175;-83
2022/08/23 08:34:08;;;;;;;3.00;1.73;;;20.50;99.90;;;;;;5119160;28;20179;-83
2022/08/23 08:36:46;;;;;;;3.90;1.50;;;20.70;99.90;;;;;;5119944;27;20171;-82
2022/08/23 08:39:15;;;;;;;4.33;2.00;;;21.00;99.90;;;;;;5119384;28;20191;-82
2022/08/23 08:41:59;;;;;;;4.70;2.10;;;21.20;99.90;;;;;;5118128;28;20198;-82
2022/08/23 08:44:48;;;;;;;2.73;1.80;;;21.50;99.90;;;;;;5119519;28;20180;-83
2022/08/23 08:47:44;;;;;;;3.87;1.90;;;21.70;99.90;;;;;;5119786;28;20199;-83
2022/08/23 08:50:35;;;;;;;4.10;1.93;;;21.90;99.90;;;;;;5113528;28;20660;-84
2022/08/23 08:53:19;;;;;;;2.37;1.87;;;22.10;99.90;;;;;;5120031;28;20625;-83
2022/08/23 08:55:48;;;;;;;2.47;1.70;;;22.30;99.90;;;;;;5118762;28;20191;-83
2022/08/23 08:58:44;;;;;;;2.73;1.60;;;22.50;99.90;;;;;;5118052;28;20203;-82
2022/08/23 09:01:10;;;;;;;3.20;1.80;;;22.60;99.90;;;;;;5117092;28;20653;-83
2022/08/23 09:03:36;;;;;;;3.67;1.60;;;22.70;99.90;;;;;;5117556;28;20186;-82
2022/08/23 09:06:13;;;;;;;6.67;2.50;;;22.80;99.90;;;;;;5119410;28;20252;-82
2022/08/23 09:09:18;;;;;;;2.73;1.60;;;23.10;99.90;;;;;;5117370;28;20575;-83
2022/08/23 09:12:04;;;;;;;1.97;1.50;;;23.50;99.90;;;;;;5117840;28;20266;-83
2022/08/23 09:14:50;;;;;;;2.53;1.50;;;23.80;99.90;;;;;;5119219;28;20166;-82
2022/08/23 09:17:43;;;;;;;2.07;1.80;;;24.10;99.90;;;;;;5117714;28;20660;-80
2022/08/23 09:20:12;;;;;;;7.20;1.50;;;24.20;99.90;;;;;;5117006;28;20188;-83
2022/08/23 09:22:40;;;;;;;5.07;1.90;;;24.30;99.90;;;;;;5117767;28;20785;-83
2022/08/23 09:25:10;;;;;;;3.67;1.43;;;24.40;99.90;;;;;;5118999;28;20206;-83
2022/08/23 09:27:38;;;;;;;7.10;1.70;;;24.80;99.90;;;;;;5117799;28;20281;-81
2022/08/23 09:30:04;;;;;;;3.10;1.63;;;24.70;99.90;;;;;;5119086;28;20172;-84
2022/08/23 09:32:36;;;;;;;3.17;1.30;;;24.80;99.90;;;;;;5118178;28;20173;-85
2022/08/23 09:35:16;;;;;;;1.83;1.30;;;24.90;99.90;;;;;;5119444;28;20249;-82
2022/08/23 09:38:02;;;;;;;2.53;1.30;;;24.60;99.90;;;;;;5117502;28;20184;-83
2022/08/23 09:40:48;;;;;;;3.20;1.57;;;24.50;99.90;;;;;;5119117;28;20259;-81
2022/08/23 09:43:24;;;;;;;3.73;1.43;;;24.60;99.90;;;;;;5122573;28;20194;-82
2022/08/23 09:45:50;;;;;;;4.40;1.87;;;24.70;99.90;;;;;;5118858;28;20207;-82
2022/08/23 09:48:39;;;;;;;5.37;1.27;;;24.90;99.90;;;;;;5120176;28;20214;-81
2022/08/23 09:51:25;;;;;;;4.30;1.53;;;25.00;99.90;;;;;;5117279;28;20199;-83
2022/08/23 09:54:20;;;;;;;2.27;1.43;;;25.30;99.90;;;;;;5118799;27;20626;-83
2022/08/23 09:56:56;;;;;;;4.13;2.00;;;25.20;99.90;;;;;;5117634;28;20319;-81
2022/08/23 09:59:25;;;;;;;2.67;1.53;;;25.00;99.90;;;;;;5118076;28;20187;-83
2022/08/23 10:01:56;;;;;;;1.73;1.40;;;25.30;99.90;;;;;;5118098;28;20184;-83
2022/08/23 10:04:29;;;;;;;3.80;1.50;;;25.60;99.90;;;;;;5118000;28;20178;-82
2022/08/23 10:06:56;;;;;;;4.73;1.60;;;25.90;99.90;;;;;;5117890;28;20203;-82
2022/08/23 10:09:30;;;;;;;4.50;1.50;;;26.10;98.40;;;;;;5117297;28;20198;-82
2022/08/23 10:11:58;;;;;;;2.17;1.47;;;26.20;99.90;;;;;;5117667;28;20165;-82
2022/08/23 10:14:26;;;;;;;4.23;1.60;;;26.40;99.90;;;;;;5116461;28;20172;-83
2022/08/23 10:17:07;;;;;;;2.43;1.57;;;26.30;99.90;;;;;;5115813;28;20203;-83
2022/08/23 10:19:52;;;;;;;3.67;1.40;;;26.80;99.90;;;;;;5117571;28;20188;-83
2022/08/23 10:22:27;;;;;;;1.90;1.27;;;26.70;99.90;;;;;;5117666;28;20192;-83
2022/08/23 10:24:52;;;;;;;2.93;1.40;;;27.00;98.20;;;;;;5116562;28;20175;-84
2022/08/23 10:30:21;;;;;;;1.73;1.10;;;27.30;98.20;;;;;;5118060;28;20173;-82
2022/08/23 10:32:49;;;;;;;2.10;1.43;;;27.50;97.70;;;;;;5117235;28;20182;-83
2022/08/23 10:35:30;;;;;;;3.37;1.50;;;27.20;98.90;;;;;;5116788;28;20296;-83
2022/08/23 10:38:20;;;;;;;2.50;1.30;;;27.20;99.80;;;;;;5117686;28;20233;-83
2022/08/23 10:40:54;;;;;;;2.80;1.70;;;27.50;96.60;;;;;;5117411;28;20189;-83
2022/08/23 10:43:38;;;;;;;3.90;1.80;;;27.60;94.50;;;;;;5117220;28;20181;-83
2022/08/23 10:46:06;;;;;;;3.93;1.13;;;27.70;95.70;;;;;;5118372;28;20168;-83
2022/08/23 10:48:37;;;;;;;3.70;1.40;;;27.90;98.90;;;;;;5117963;28;20204;-82
2022/08/23 10:51:36;;;;;;;4.10;1.70;;;28.00;92.50;;;;;;5125178;28;20198;-82
2022/08/23 10:55:04;;;;;;;3.10;1.60;;;28.00;95.30;;;;;;5136870;28;20169;-82
2022/08/23 10:57:34;;;;;;;3.20;1.60;;;27.80;93.00;;;;;;5091677;28;20175;-83
2022/08/23 11:00:07;;;;;;;3.77;1.47;;;27.90;96.70;;;;;;5088326;28;20227;-82
2022/08/23 11:03:15;;;;;;;2.23;1.40;;;27.90;93.30;;;;;;5127166;28;20595;-81
2022/08/23 11:05:41;;;;;;;2.80;1.47;;;27.90;96.10;;;;;;5117936;28;20187;-82
2022/08/23 11:08:31;;;;;;;2.40;1.43;;;27.90;97.10;;;;;;5135235;28;20217;-81
2022/08/23 11:10:56;;;;;;;2.00;1.43;;;27.90;94.70;;;;;;5131189;28;20172;-82
2022/08/23 11:13:26;;;;;;;5.03;2.00;;;27.90;92.50;;;;;;5117533;28;20240;-82
2022/08/23 11:16:15;;;;;;;5.07;1.40;;;28.20;95.70;;;;;;5115908;28;20172;-83
2022/08/23 11:18:44;;;;;;;4.83;1.70;;;28.40;94.50;;;;;;5117091;28;20188;-82
2022/08/23 11:21:25;;;;;;;4.97;1.50;;;28.40;92.90;;;;;;5117203;28;20331;-82
2022/08/23 11:24:11;;;;;;;2.07;1.43;;;28.50;94.10;;;;;;5117635;28;20170;-82
2022/08/23 11:26:38;;;;;;;3.20;1.70;;;28.50;91.80;;;;;;5113537;28;20216;-82
2022/08/23 11:29:09;;;;;;;3.20;1.50;;;28.90;95.60;;;;;;5119641;28;20218;-82
2022/08/23 11:31:38;;;;;;;2.43;1.70;;;29.10;93.50;;;;;;5121632;28;20164;-82
2022/08/23 11:34:23;;;;;;;3.00;1.50;;;29.00;91.90;;;;;;5121195;28;20257;-82
2022/08/23 11:37:17;;;;;;;3.20;1.80;;;29.30;91.70;;;;;;5119186;28;20183;-84
2022/08/23 11:39:58;;;;;;;2.93;1.33;;;29.40;90.00;;;;;;5119880;28;20717;-82
2022/08/23 11:42:50;;;;;;;2.87;1.60;;;29.40;89.90;;;;;;5121155;28;20204;-83
2022/08/23 11:45:27;;;;;;;2.10;1.43;;;29.50;92.60;;;;;;5120044;28;20271;-83
2022/08/23 11:48:11;;;;;;;4.73;1.47;;;29.20;90.50;;;;;;5119113;28;20207;-82
2022/08/23 11:51:01;;;;;;;3.00;1.60;;;29.20;87.50;;;;;;5119727;28;20266;-82
2022/08/23 11:53:51;;;;;;;2.97;1.53;;;29.20;92.40;;;;;;5120603;28;20170;-82
2022/08/23 11:56:47;;;;;;;3.23;1.50;;;29.40;93.20;;;;;;5120748;28;20184;-83
2022/08/23 11:59:33;;;;;;;3.97;1.87;;;29.70;86.10;;;;;;5120184;28;20188;-85
2022/08/23 12:02:30;;;;;;;7.80;2.23;;;29.50;81.00;;;;;;5120149;28;20164;-83
2022/08/23 12:04:59;;;;;;;2.97;1.40;;;29.50;85.60;;;;;;5120215;28;20164;-83
2022/08/23 12:07:52;;;;;;;5.03;1.80;;;29.80;87.60;;;;;;5120086;28;20198;-83
2022/08/23 12:10:36;;;;;;;3.80;1.53;;;29.80;89.30;;;;;;5119669;27;20249;-82
2022/08/23 12:13:18;;;;;;;3.33;1.40;;;29.20;91.40;;;;;;5120377;28;20171;-82
2022/08/23 12:16:05;;;;;;;4.53;1.43;;;29.30;82.70;;;;;;5120379;28;20171;-82
2022/08/23 12:18:46;;;;;;;2.53;1.63;;;29.50;88.90;;;;;;5120439;28;20191;-82
2022/08/23 12:21:41;;;;;;;2.40;1.33;;;29.50;81.70;;;;;;5120372;28;20711;-82
2022/08/23 12:24:31;;;;;;;2.50;1.57;;;29.70;84.50;;;;;;5120148;28;20173;-82
2022/08/23 12:27:09;;;;;;;2.00;1.50;;;29.60;80.90;;;;;;5120030;28;20197;-81
2022/08/23 12:29:47;;;;;;;3.20;1.63;;;29.80;87.10;;;;;;5120248;28;20223;-83
2022/08/23 12:32:20;;;;;;;2.07;1.20;;;30.00;89.70;;;;;;5118695;28;20174;-82
2022/08/23 12:35:08;;;;;;;2.20;1.47;;;30.10;82.50;;;;;;5120043;28;20167;-83
2022/08/23 12:38:01;;;;;;;2.13;1.30;;;;;;;;;;5118180;28;20183;-82
2022/08/23 12:40:43;;;;;;;2.47;1.80;;;30.30;85.20;;;;;;5115878;28;20262;-83
2022/08/23 12:43:12;;;;;;;3.47;1.50;;;30.40;84.90;;;;;;5118138;28;20178;-82
2022/08/23 12:45:42;;;;;;;2.27;1.37;;;30.50;83.40;;;;;;5117572;28;20179;-83
2022/08/23 12:48:10;;;;;;;2.30;1.60;;;30.70;83.20;;;;;;5118049;28;20217;-81
2022/08/23 12:50:42;;;;;;;1.97;1.53;;;30.80;81.80;;;;;;5119905;28;20254;-83
2022/08/23 12:53:24;;;;;;;2.23;1.37;;;30.80;85.30;;;;;;5119617;28;20174;-82
2022/08/23 12:56:03;;;;;;;3.63;1.63;;;30.90;87.00;;;;;;5118032;28;20245;-81
2022/08/23 12:58:31;;;;;;;2.63;1.50;;;30.50;81.00;;;;;;5119493;28;20660;-82
2022/08/23 13:01:01;;;;;;;3.83;1.53;;;30.40;85.40;;;;;;5118468;28;20232;-83
2022/08/23 13:03:40;;;;;;;3.37;1.70;;;30.60;84.10;;;;;;5118702;28;20565;-82
2022/08/23 13:06:11;;;;;;;5.70;1.67;;;30.50;77.90;;;;;;5118220;28;20642;-82
2022/08/23 13:09:03;;;;;;;2.67;1.40;;;30.40;81.10;;;;;;5118197;28;20213;-83
2022/08/23 13:11:32;;;;;;;2.07;1.40;;;30.40;84.00;;;;;;5118439;28;20541;-82
2022/08/23 13:14:00;;;;;;;6.53;1.47;;;30.00;75.80;;;;;;5120228;28;20165;-82
2022/08/23 13:16:42;;;;;;;2.80;1.60;;;29.90;72.10;;;;;;5119836;28;20258;-82
2022/08/23 13:19:19;;;;;;;8.60;1.43;;;30.10;73.40;;;;;;5119987;28;20185;-81
2022/08/23 13:21:45;;;;;;;2.23;1.37;;;30.20;83.40;;;;;;5120829;28;20169;-83
2022/08/23 13:24:32;;;;;;;2.20;1.60;;;30.40;78.60;;;;;;5120293;28;20165;-83